sensor_id;sensor_type;location;lat;lon;timestamp;P1;durP1;ratioP1;P2;durP2;ratioP2
74170;SDS011;62526;50.948;6.590;2023-05-07T00:01:30;9.32;;;7.57;;
74170;SDS011;62526;50.948;6.590;2023-05-07T00:03:56;11.18;;;8.23;;
74170;SDS011;62526;50.948;6.590;2023-05-07T00:06:23;9.75;;;7.93;;
74170;SDS011;62526;50.948;6.590;2023-05-07T00:08:50;10.98;;;7.53;;
74170;SDS011;62526;50.948;6.590;2023-05-07T00:11:16;15.63;;;8.55;;
74170;SDS011;62526;50.948;6.590;2023-05-07T00:13:43;11.38;;;8.20;;
74170;SDS011;62526;50.948;6.590;2023-05-07T00:16:09;10.45;;;8.05;;
74170;SDS011;62526;50.948;6.590;2023-05-07T00:18:36;10.73;;;7.22;;
74170;SDS011;62526;50.948;6.590;2023-05-07T00:21:03;10.57;;;7.45;;
74170;SDS011;62526;50.948;6.590;2023-05-07T00:23:31;9.02;;;7.62;;
74170;SDS011;62526;50.948;6.590;2023-05-07T00:25:58;10.65;;;7.30;;
74170;SDS011;62526;50.948;6.590;2023-05-07T00:28:24;10.38;;;7.25;;
74170;SDS011;62526;50.948;6.590;2023-05-07T00:30:51;8.40;;;6.55;;
74170;SDS011;62526;50.948;6.590;2023-05-07T00:35:51;10.65;;;7.62;;
74170;SDS011;62526;50.948;6.590;2023-05-07T00:38:17;10.73;;;8.00;;
74170;SDS011;62526;50.948;6.590;2023-05-07T00:40:44;10.73;;;8.00;;
74170;SDS011;62526;50.948;6.590;2023-05-07T00:43:10;11.85;;;8.35;;
74170;SDS011;62526;50.948;6.590;2023-05-07T00:45:37;10.90;;;7.95;;
74170;SDS011;62526;50.948;6.590;2023-05-07T00:48:04;10.50;;;7.10;;
74170;SDS011;62526;50.948;6.590;2023-05-07T00:50:30;10.18;;;7.82;;
74170;SDS011;62526;50.948;6.590;2023-05-07T00:52:58;11.95;;;8.07;;
74170;SDS011;62526;50.948;6.590;2023-05-07T00:55:25;13.00;;;9.43;;
74170;SDS011;62526;50.948;6.590;2023-05-07T00:57:51;14.57;;;9.63;;
74170;SDS011;62526;50.948;6.590;2023-05-07T01:00:18;14.27;;;9.77;;
74170;SDS011;62526;50.948;6.590;2023-05-07T01:02:44;16.70;;;11.07;;
74170;SDS011;62526;50.948;6.590;2023-05-07T01:05:12;22.50;;;12.10;;
74170;SDS011;62526;50.948;6.590;2023-05-07T01:07:39;21.20;;;12.45;;
74170;SDS011;62526;50.948;6.590;2023-05-07T01:10:05;23.83;;;12.63;;
74170;SDS011;62526;50.948;6.590;2023-05-07T01:12:33;23.35;;;14.02;;
74170;SDS011;62526;50.948;6.590;2023-05-07T01:15:00;20.02;;;13.95;;
74170;SDS011;62526;50.948;6.590;2023-05-07T01:17:26;20.00;;;13.57;;
74170;SDS011;62526;50.948;6.590;2023-05-07T01:19:53;21.83;;;14.25;;
74170;SDS011;62526;50.948;6.590;2023-05-07T01:22:28;25.25;;;14.63;;
74170;SDS011;62526;50.948;6.590;2023-05-07T01:24:53;21.65;;;15.30;;
74170;SDS011;62526;50.948;6.590;2023-05-07T01:27:19;26.75;;;15.32;;
74170;SDS011;62526;50.948;6.590;2023-05-07T01:29:46;25.75;;;14.45;;
74170;SDS011;62526;50.948;6.590;2023-05-07T01:32:13;23.87;;;14.98;;
74170;SDS011;62526;50.948;6.590;2023-05-07T01:34:40;23.20;;;14.50;;
74170;SDS011;62526;50.948;6.590;2023-05-07T01:37:06;22.05;;;14.02;;
74170;SDS011;62526;50.948;6.590;2023-05-07T01:39:38;25.00;;;15.98;;
74170;SDS011;62526;50.948;6.590;2023-05-07T01:42:00;25.42;;;15.15;;
74170;SDS011;62526;50.948;6.590;2023-05-07T01:44:27;25.85;;;15.98;;
74170;SDS011;62526;50.948;6.590;2023-05-07T01:46:54;28.60;;;15.68;;
74170;SDS011;62526;50.948;6.590;2023-05-07T01:49:21;27.27;;;16.60;;
74170;SDS011;62526;50.948;6.590;2023-05-07T01:51:48;28.35;;;16.12;;
74170;SDS011;62526;50.948;6.590;2023-05-07T01:54:15;29.77;;;16.73;;
74170;SDS011;62526;50.948;6.590;2023-05-07T01:56:42;28.00;;;17.50;;
74170;SDS011;62526;50.948;6.590;2023-05-07T01:59:08;31.73;;;17.23;;
74170;SDS011;62526;50.948;6.590;2023-05-07T02:01:37;31.83;;;18.05;;
74170;SDS011;62526;50.948;6.590;2023-05-07T02:04:04;29.55;;;17.90;;
74170;SDS011;62526;50.948;6.590;2023-05-07T02:06:30;30.80;;;17.92;;
74170;SDS011;62526;50.948;6.590;2023-05-07T02:08:59;32.92;;;19.58;;
74170;SDS011;62526;50.948;6.590;2023-05-07T02:11:26;34.33;;;18.60;;
74170;SDS011;62526;50.948;6.590;2023-05-07T02:13:53;31.70;;;19.65;;
74170;SDS011;62526;50.948;6.590;2023-05-07T02:16:20;33.78;;;19.67;;
74170;SDS011;62526;50.948;6.590;2023-05-07T02:18:46;35.78;;;19.05;;
74170;SDS011;62526;50.948;6.590;2023-05-07T02:21:13;31.92;;;19.37;;
74170;SDS011;62526;50.948;6.590;2023-05-07T02:23:39;29.67;;;19.67;;
74170;SDS011;62526;50.948;6.590;2023-05-07T02:26:08;31.58;;;20.00;;
74170;SDS011;62526;50.948;6.590;2023-05-07T02:28:34;34.20;;;19.87;;
74170;SDS011;62526;50.948;6.590;2023-05-07T02:31:02;40.50;;;21.30;;
74170;SDS011;62526;50.948;6.590;2023-05-07T02:33:28;39.08;;;20.65;;
74170;SDS011;62526;50.948;6.590;2023-05-07T02:35:56;33.30;;;21.55;;
74170;SDS011;62526;50.948;6.590;2023-05-07T02:38:22;31.65;;;19.48;;
74170;SDS011;62526;50.948;6.590;2023-05-07T02:40:49;31.73;;;20.42;;
74170;SDS011;62526;50.948;6.590;2023-05-07T02:43:16;33.17;;;20.65;;
74170;SDS011;62526;50.948;6.590;2023-05-07T02:45:43;31.83;;;19.90;;
74170;SDS011;62526;50.948;6.590;2023-05-07T02:48:10;34.60;;;21.70;;
74170;SDS011;62526;50.948;6.590;2023-05-07T02:50:36;33.60;;;20.62;;
74170;SDS011;62526;50.948;6.590;2023-05-07T02:53:03;34.80;;;21.67;;
74170;SDS011;62526;50.948;6.590;2023-05-07T02:55:30;32.45;;;20.02;;
74170;SDS011;62526;50.948;6.590;2023-05-07T02:57:56;33.35;;;20.15;;
74170;SDS011;62526;50.948;6.590;2023-05-07T03:00:23;32.63;;;20.02;;
74170;SDS011;62526;50.948;6.590;2023-05-07T03:02:51;32.33;;;20.27;;
74170;SDS011;62526;50.948;6.590;2023-05-07T03:05:18;35.53;;;20.10;;
74170;SDS011;62526;50.948;6.590;2023-05-07T03:07:45;31.37;;;19.77;;
74170;SDS011;62526;50.948;6.590;2023-05-07T03:10:11;33.45;;;20.37;;
74170;SDS011;62526;50.948;6.590;2023-05-07T03:12:38;37.05;;;20.60;;
74170;SDS011;62526;50.948;6.590;2023-05-07T03:15:04;30.60;;;19.25;;
74170;SDS011;62526;50.948;6.590;2023-05-07T03:17:31;31.30;;;19.23;;
74170;SDS011;62526;50.948;6.590;2023-05-07T03:20:00;29.12;;;19.60;;
74170;SDS011;62526;50.948;6.590;2023-05-07T03:22:27;32.45;;;19.60;;
74170;SDS011;62526;50.948;6.590;2023-05-07T03:24:54;28.85;;;18.60;;
74170;SDS011;62526;50.948;6.590;2023-05-07T03:27:21;31.08;;;19.33;;
74170;SDS011;62526;50.948;6.590;2023-05-07T03:29:48;28.30;;;18.02;;
74170;SDS011;62526;50.948;6.590;2023-05-07T03:32:14;28.20;;;18.10;;
74170;SDS011;62526;50.948;6.590;2023-05-07T03:34:41;27.13;;;17.40;;
74170;SDS011;62526;50.948;6.590;2023-05-07T03:37:08;30.17;;;18.20;;
74170;SDS011;62526;50.948;6.590;2023-05-07T03:39:35;30.83;;;18.60;;
74170;SDS011;62526;50.948;6.590;2023-05-07T03:42:02;30.65;;;17.20;;
74170;SDS011;62526;50.948;6.590;2023-05-07T03:44:29;27.02;;;18.08;;
74170;SDS011;62526;50.948;6.590;2023-05-07T03:46:56;28.87;;;17.37;;
74170;SDS011;62526;50.948;6.590;2023-05-07T03:49:22;28.60;;;17.92;;
74170;SDS011;62526;50.948;6.590;2023-05-07T03:51:49;27.98;;;16.98;;
74170;SDS011;62526;50.948;6.590;2023-05-07T03:54:16;27.42;;;17.15;;
74170;SDS011;62526;50.948;6.590;2023-05-07T03:56:43;26.87;;;16.23;;
74170;SDS011;62526;50.948;6.590;2023-05-07T03:59:10;26.00;;;17.05;;
74170;SDS011;62526;50.948;6.590;2023-05-07T04:01:36;27.05;;;17.70;;
74170;SDS011;62526;50.948;6.590;2023-05-07T04:04:03;24.05;;;15.18;;
74170;SDS011;62526;50.948;6.590;2023-05-07T04:06:30;25.67;;;15.52;;
74170;SDS011;62526;50.948;6.590;2023-05-07T04:08:57;21.70;;;14.80;;
74170;SDS011;62526;50.948;6.590;2023-05-07T04:11:24;28.12;;;16.45;;
74170;SDS011;62526;50.948;6.590;2023-05-07T04:13:51;26.00;;;15.98;;
74170;SDS011;62526;50.948;6.590;2023-05-07T04:16:17;29.17;;;16.50;;
74170;SDS011;62526;50.948;6.590;2023-05-07T04:18:44;27.17;;;15.98;;
74170;SDS011;62526;50.948;6.590;2023-05-07T04:21:15;25.42;;;15.43;;
74170;SDS011;62526;50.948;6.590;2023-05-07T04:23:41;26.15;;;16.55;;
74170;SDS011;62526;50.948;6.590;2023-05-07T04:26:08;28.33;;;15.52;;
74170;SDS011;62526;50.948;6.590;2023-05-07T04:28:35;22.90;;;14.80;;
74170;SDS011;62526;50.948;6.590;2023-05-07T04:31:02;23.10;;;15.07;;
74170;SDS011;62526;50.948;6.590;2023-05-07T04:33:28;27.75;;;15.95;;
74170;SDS011;62526;50.948;6.590;2023-05-07T04:35:55;21.75;;;14.43;;
74170;SDS011;62526;50.948;6.590;2023-05-07T04:38:23;26.48;;;15.27;;
74170;SDS011;62526;50.948;6.590;2023-05-07T04:40:50;24.45;;;15.65;;
74170;SDS011;62526;50.948;6.590;2023-05-07T04:43:17;31.60;;;14.75;;
74170;SDS011;62526;50.948;6.590;2023-05-07T04:45:43;22.30;;;14.43;;
74170;SDS011;62526;50.948;6.590;2023-05-07T04:48:10;23.98;;;14.50;;
74170;SDS011;62526;50.948;6.590;2023-05-07T04:50:37;21.65;;;14.32;;
74170;SDS011;62526;50.948;6.590;2023-05-07T04:53:03;28.08;;;14.23;;
74170;SDS011;62526;50.948;6.590;2023-05-07T04:55:30;20.75;;;13.40;;
74170;SDS011;62526;50.948;6.590;2023-05-07T04:57:57;23.42;;;13.25;;
74170;SDS011;62526;50.948;6.590;2023-05-07T05:00:23;22.92;;;13.23;;
74170;SDS011;62526;50.948;6.590;2023-05-07T05:02:50;21.35;;;13.43;;
74170;SDS011;62526;50.948;6.590;2023-05-07T05:05:17;18.73;;;11.75;;
74170;SDS011;62526;50.948;6.590;2023-05-07T05:07:44;19.85;;;12.40;;
74170;SDS011;62526;50.948;6.590;2023-05-07T05:10:11;23.65;;;13.90;;
74170;SDS011;62526;50.948;6.590;2023-05-07T05:12:37;20.17;;;12.63;;
74170;SDS011;62526;50.948;6.590;2023-05-07T05:15:04;18.52;;;12.37;;
74170;SDS011;62526;50.948;6.590;2023-05-07T05:17:31;24.27;;;12.90;;
74170;SDS011;62526;50.948;6.590;2023-05-07T05:19:58;15.00;;;11.20;;
74170;SDS011;62526;50.948;6.590;2023-05-07T05:22:25;17.23;;;11.60;;
74170;SDS011;62526;50.948;6.590;2023-05-07T05:24:52;17.77;;;11.95;;
74170;SDS011;62526;50.948;6.590;2023-05-07T05:27:19;19.20;;;11.23;;
74170;SDS011;62526;50.948;6.590;2023-05-07T05:29:45;16.12;;;11.93;;
74170;SDS011;62526;50.948;6.590;2023-05-07T05:32:12;18.70;;;12.65;;
74170;SDS011;62526;50.948;6.590;2023-05-07T05:34:38;19.33;;;12.00;;
74170;SDS011;62526;50.948;6.590;2023-05-07T05:37:05;16.73;;;11.80;;
74170;SDS011;62526;50.948;6.590;2023-05-07T05:39:32;20.98;;;12.23;;
74170;SDS011;62526;50.948;6.590;2023-05-07T05:41:58;16.98;;;11.50;;
74170;SDS011;62526;50.948;6.590;2023-05-07T05:44:25;18.92;;;10.43;;
74170;SDS011;62526;50.948;6.590;2023-05-07T05:46:51;17.92;;;10.80;;
74170;SDS011;62526;50.948;6.590;2023-05-07T05:49:18;14.00;;;9.88;;
74170;SDS011;62526;50.948;6.590;2023-05-07T05:51:45;14.68;;;9.65;;
74170;SDS011;62526;50.948;6.590;2023-05-07T05:54:11;18.25;;;9.85;;
74170;SDS011;62526;50.948;6.590;2023-05-07T05:56:38;14.60;;;9.82;;
74170;SDS011;62526;50.948;6.590;2023-05-07T05:59:04;15.52;;;9.88;;
74170;SDS011;62526;50.948;6.590;2023-05-07T06:01:31;11.95;;;8.55;;
74170;SDS011;62526;50.948;6.590;2023-05-07T06:03:58;10.18;;;7.80;;
74170;SDS011;62526;50.948;6.590;2023-05-07T06:06:25;10.95;;;8.48;;
74170;SDS011;62526;50.948;6.590;2023-05-07T06:08:51;9.02;;;7.70;;
74170;SDS011;62526;50.948;6.590;2023-05-07T06:11:19;9.13;;;7.82;;
74170;SDS011;62526;50.948;6.590;2023-05-07T06:13:45;11.30;;;7.68;;
74170;SDS011;62526;50.948;6.590;2023-05-07T06:16:13;10.73;;;6.70;;
74170;SDS011;62526;50.948;6.590;2023-05-07T06:18:40;9.73;;;6.85;;
74170;SDS011;62526;50.948;6.590;2023-05-07T06:21:08;9.55;;;5.55;;
74170;SDS011;62526;50.948;6.590;2023-05-07T06:23:35;11.93;;;6.50;;
74170;SDS011;62526;50.948;6.590;2023-05-07T06:26:02;9.38;;;6.55;;
74170;SDS011;62526;50.948;6.590;2023-05-07T06:28:29;8.52;;;5.50;;
74170;SDS011;62526;50.948;6.590;2023-05-07T06:31:10;7.78;;;5.57;;
74170;SDS011;62526;50.948;6.590;2023-05-07T06:36:03;10.52;;;5.68;;
74170;SDS011;62526;50.948;6.590;2023-05-07T06:38:29;6.25;;;4.95;;
74170;SDS011;62526;50.948;6.590;2023-05-07T06:40:56;9.63;;;6.00;;
74170;SDS011;62526;50.948;6.590;2023-05-07T06:43:23;6.60;;;4.87;;
74170;SDS011;62526;50.948;6.590;2023-05-07T06:45:50;6.85;;;5.20;;
74170;SDS011;62526;50.948;6.590;2023-05-07T06:48:17;8.10;;;5.00;;
74170;SDS011;62526;50.948;6.590;2023-05-07T06:50:43;6.87;;;4.95;;
74170;SDS011;62526;50.948;6.590;2023-05-07T06:53:10;7.97;;;5.25;;
74170;SDS011;62526;50.948;6.590;2023-05-07T06:55:36;6.45;;;5.10;;
74170;SDS011;62526;50.948;6.590;2023-05-07T06:58:03;7.93;;;5.55;;
74170;SDS011;62526;50.948;6.590;2023-05-07T07:00:30;8.73;;;5.57;;
74170;SDS011;62526;50.948;6.590;2023-05-07T07:02:57;7.65;;;5.57;;
74170;SDS011;62526;50.948;6.590;2023-05-07T07:05:23;6.78;;;4.82;;
74170;SDS011;62526;50.948;6.590;2023-05-07T07:07:50;7.07;;;5.05;;
74170;SDS011;62526;50.948;6.590;2023-05-07T07:10:19;6.53;;;5.10;;
74170;SDS011;62526;50.948;6.590;2023-05-07T07:12:45;6.20;;;4.53;;
74170;SDS011;62526;50.948;6.590;2023-05-07T07:15:13;7.72;;;4.90;;
74170;SDS011;62526;50.948;6.590;2023-05-07T07:17:39;8.27;;;5.10;;
74170;SDS011;62526;50.948;6.590;2023-05-07T07:20:06;7.78;;;5.20;;
74170;SDS011;62526;50.948;6.590;2023-05-07T07:22:33;6.80;;;4.57;;
74170;SDS011;62526;50.948;6.590;2023-05-07T07:25:00;6.45;;;4.97;;
74170;SDS011;62526;50.948;6.590;2023-05-07T07:27:27;10.40;;;5.10;;
74170;SDS011;62526;50.948;6.590;2023-05-07T07:29:54;5.32;;;4.50;;
74170;SDS011;62526;50.948;6.590;2023-05-07T07:32:21;6.35;;;5.22;;
74170;SDS011;62526;50.948;6.590;2023-05-07T07:34:48;6.43;;;4.93;;
74170;SDS011;62526;50.948;6.590;2023-05-07T07:37:14;7.62;;;4.95;;
74170;SDS011;62526;50.948;6.590;2023-05-07T07:39:41;6.93;;;4.90;;
74170;SDS011;62526;50.948;6.590;2023-05-07T07:42:07;9.77;;;5.75;;
74170;SDS011;62526;50.948;6.590;2023-05-07T07:44:34;8.35;;;5.30;;
74170;SDS011;62526;50.948;6.590;2023-05-07T07:47:01;10.50;;;5.28;;
74170;SDS011;62526;50.948;6.590;2023-05-07T07:49:27;6.55;;;5.25;;
74170;SDS011;62526;50.948;6.590;2023-05-07T07:51:54;8.07;;;4.62;;
74170;SDS011;62526;50.948;6.590;2023-05-07T07:54:20;6.20;;;4.62;;
74170;SDS011;62526;50.948;6.590;2023-05-07T07:56:47;9.27;;;5.20;;
74170;SDS011;62526;50.948;6.590;2023-05-07T07:59:14;7.25;;;4.85;;
74170;SDS011;62526;50.948;6.590;2023-05-07T08:01:40;8.80;;;4.68;;
74170;SDS011;62526;50.948;6.590;2023-05-07T08:04:08;6.62;;;3.97;;
74170;SDS011;62526;50.948;6.590;2023-05-07T08:06:34;5.18;;;4.28;;
74170;SDS011;62526;50.948;6.590;2023-05-07T08:09:01;5.28;;;4.07;;
74170;SDS011;62526;50.948;6.590;2023-05-07T08:11:28;5.00;;;3.95;;
74170;SDS011;62526;50.948;6.590;2023-05-07T08:13:54;8.90;;;4.60;;
74170;SDS011;62526;50.948;6.590;2023-05-07T08:16:21;6.80;;;3.58;;
74170;SDS011;62526;50.948;6.590;2023-05-07T08:18:48;10.93;;;4.72;;
74170;SDS011;62526;50.948;6.590;2023-05-07T08:21:14;4.37;;;3.35;;
74170;SDS011;62526;50.948;6.590;2023-05-07T08:23:41;4.03;;;3.20;;
74170;SDS011;62526;50.948;6.590;2023-05-07T08:26:08;7.37;;;3.72;;
74170;SDS011;62526;50.948;6.590;2023-05-07T08:28:34;5.80;;;3.00;;
74170;SDS011;62526;50.948;6.590;2023-05-07T08:31:01;4.40;;;3.15;;
74170;SDS011;62526;50.948;6.590;2023-05-07T08:33:27;5.50;;;3.12;;
74170;SDS011;62526;50.948;6.590;2023-05-07T08:35:54;3.78;;;3.05;;
74170;SDS011;62526;50.948;6.590;2023-05-07T08:38:20;5.40;;;3.58;;
74170;SDS011;62526;50.948;6.590;2023-05-07T08:40:47;3.45;;;2.87;;
74170;SDS011;62526;50.948;6.590;2023-05-07T08:43:14;4.78;;;3.12;;
74170;SDS011;62526;50.948;6.590;2023-05-07T08:45:40;3.85;;;2.30;;
74170;SDS011;62526;50.948;6.590;2023-05-07T08:48:08;4.03;;;2.50;;
74170;SDS011;62526;50.948;6.590;2023-05-07T08:50:35;4.85;;;2.37;;
74170;SDS011;62526;50.948;6.590;2023-05-07T08:53:02;4.00;;;2.62;;
74170;SDS011;62526;50.948;6.590;2023-05-07T08:55:28;5.07;;;2.87;;
74170;SDS011;62526;50.948;6.590;2023-05-07T08:57:55;5.97;;;2.55;;
74170;SDS011;62526;50.948;6.590;2023-05-07T09:00:22;4.82;;;2.65;;
74170;SDS011;62526;50.948;6.590;2023-05-07T09:02:48;3.70;;;2.70;;
74170;SDS011;62526;50.948;6.590;2023-05-07T09:05:15;3.35;;;2.60;;
74170;SDS011;62526;50.948;6.590;2023-05-07T09:07:42;4.40;;;2.78;;
74170;SDS011;62526;50.948;6.590;2023-05-07T09:10:08;5.37;;;2.78;;
74170;SDS011;62526;50.948;6.590;2023-05-07T09:12:35;4.05;;;3.03;;
74170;SDS011;62526;50.948;6.590;2023-05-07T09:15:02;4.60;;;3.17;;
74170;SDS011;62526;50.948;6.590;2023-05-07T09:17:28;6.90;;;3.30;;
74170;SDS011;62526;50.948;6.590;2023-05-07T09:19:55;3.50;;;3.00;;
74170;SDS011;62526;50.948;6.590;2023-05-07T09:22:22;5.75;;;2.97;;
74170;SDS011;62526;50.948;6.590;2023-05-07T09:24:48;4.12;;;2.97;;
74170;SDS011;62526;50.948;6.590;2023-05-07T09:27:15;4.28;;;2.60;;
74170;SDS011;62526;50.948;6.590;2023-05-07T09:29:42;6.37;;;2.83;;
74170;SDS011;62526;50.948;6.590;2023-05-07T09:32:08;3.58;;;2.30;;
74170;SDS011;62526;50.948;6.590;2023-05-07T09:34:35;3.65;;;2.35;;
74170;SDS011;62526;50.948;6.590;2023-05-07T09:37:02;4.50;;;2.37;;
74170;SDS011;62526;50.948;6.590;2023-05-07T09:42:04;6.43;;;2.90;;
74170;SDS011;62526;50.948;6.590;2023-05-07T09:44:31;3.80;;;3.05;;
74170;SDS011;62526;50.948;6.590;2023-05-07T09:46:57;6.37;;;2.87;;
74170;SDS011;62526;50.948;6.590;2023-05-07T09:49:24;3.87;;;2.70;;
74170;SDS011;62526;50.948;6.590;2023-05-07T09:51:51;5.28;;;2.58;;
74170;SDS011;62526;50.948;6.590;2023-05-07T09:54:18;7.62;;;2.83;;
74170;SDS011;62526;50.948;6.590;2023-05-07T09:56:45;5.62;;;2.72;;
74170;SDS011;62526;50.948;6.590;2023-05-07T09:59:12;4.25;;;2.90;;
74170;SDS011;62526;50.948;6.590;2023-05-07T10:01:40;6.28;;;2.83;;
74170;SDS011;62526;50.948;6.590;2023-05-07T10:04:07;4.75;;;2.78;;
74170;SDS011;62526;50.948;6.590;2023-05-07T10:06:35;4.03;;;2.78;;
74170;SDS011;62526;50.948;6.590;2023-05-07T10:09:02;5.53;;;2.62;;
74170;SDS011;62526;50.948;6.590;2023-05-07T10:11:29;6.22;;;3.17;;
74170;SDS011;62526;50.948;6.590;2023-05-07T10:13:55;3.50;;;2.50;;
74170;SDS011;62526;50.948;6.590;2023-05-07T10:16:22;6.87;;;2.70;;
74170;SDS011;62526;50.948;6.590;2023-05-07T10:18:48;5.12;;;2.50;;
74170;SDS011;62526;50.948;6.590;2023-05-07T10:21:17;9.15;;;2.92;;
74170;SDS011;62526;50.948;6.590;2023-05-07T10:23:45;2.83;;;2.17;;
74170;SDS011;62526;50.948;6.590;2023-05-07T10:26:11;3.92;;;2.70;;
74170;SDS011;62526;50.948;6.590;2023-05-07T10:28:38;7.80;;;2.22;;
74170;SDS011;62526;50.948;6.590;2023-05-07T10:31:08;3.80;;;2.22;;
74170;SDS011;62526;50.948;6.590;2023-05-07T10:33:34;4.20;;;2.37;;
74170;SDS011;62526;50.948;6.590;2023-05-07T10:36:01;3.25;;;2.33;;
74170;SDS011;62526;50.948;6.590;2023-05-07T10:38:27;3.35;;;2.15;;
74170;SDS011;62526;50.948;6.590;2023-05-07T10:40:54;5.03;;;2.30;;
74170;SDS011;62526;50.948;6.590;2023-05-07T10:43:20;5.20;;;2.00;;
74170;SDS011;62526;50.948;6.590;2023-05-07T10:46:22;4.78;;;2.20;;
74170;SDS011;62526;50.948;6.590;2023-05-07T10:51:24;1.85;;;1.65;;
74170;SDS011;62526;50.948;6.590;2023-05-07T10:56:30;4.43;;;2.30;;
74170;SDS011;62526;50.948;6.590;2023-05-07T10:58:59;3.22;;;1.95;;
74170;SDS011;62526;50.948;6.590;2023-05-07T11:04:14;5.53;;;2.08;;
74170;SDS011;62526;50.948;6.590;2023-05-07T11:06:41;3.92;;;2.53;;
74170;SDS011;62526;50.948;6.590;2023-05-07T11:09:08;6.93;;;1.98;;
74170;SDS011;62526;50.948;6.590;2023-05-07T11:14:10;3.95;;;1.98;;
74170;SDS011;62526;50.948;6.590;2023-05-07T11:16:36;4.93;;;2.20;;
74170;SDS011;62526;50.948;6.590;2023-05-07T11:29:55;2.37;;;1.83;;
74170;SDS011;62526;50.948;6.590;2023-05-07T11:32:22;4.32;;;2.00;;
74170;SDS011;62526;50.948;6.590;2023-05-07T11:34:52;8.30;;;2.28;;
74170;SDS011;62526;50.948;6.590;2023-05-07T11:37:21;3.62;;;1.77;;
74170;SDS011;62526;50.948;6.590;2023-05-07T11:39:47;4.30;;;2.20;;
74170;SDS011;62526;50.948;6.590;2023-05-07T11:42:32;2.95;;;2.05;;
74170;SDS011;62526;50.948;6.590;2023-05-07T11:44:59;3.42;;;1.80;;
74170;SDS011;62526;50.948;6.590;2023-05-07T11:47:25;2.65;;;2.00;;
74170;SDS011;62526;50.948;6.590;2023-05-07T11:49:52;2.67;;;1.73;;
74170;SDS011;62526;50.948;6.590;2023-05-07T11:52:19;4.10;;;2.05;;
74170;SDS011;62526;50.948;6.590;2023-05-07T11:54:52;2.67;;;1.70;;
74170;SDS011;62526;50.948;6.590;2023-05-07T11:57:19;3.58;;;1.92;;
74170;SDS011;62526;50.948;6.590;2023-05-07T11:59:46;2.05;;;1.83;;
74170;SDS011;62526;50.948;6.590;2023-05-07T12:02:14;2.37;;;1.90;;
74170;SDS011;62526;50.948;6.590;2023-05-07T12:04:41;4.65;;;2.12;;
74170;SDS011;62526;50.948;6.590;2023-05-07T12:07:11;3.70;;;2.20;;
74170;SDS011;62526;50.948;6.590;2023-05-07T12:09:38;4.53;;;1.73;;
74170;SDS011;62526;50.948;6.590;2023-05-07T12:12:04;4.12;;;1.65;;
74170;SDS011;62526;50.948;6.590;2023-05-07T12:14:31;3.50;;;1.95;;
74170;SDS011;62526;50.948;6.590;2023-05-07T12:16:59;2.00;;;1.80;;
74170;SDS011;62526;50.948;6.590;2023-05-07T12:19:26;3.25;;;2.03;;
74170;SDS011;62526;50.948;6.590;2023-05-07T12:21:52;3.83;;;2.03;;
74170;SDS011;62526;50.948;6.590;2023-05-07T12:24:19;4.03;;;2.00;;
74170;SDS011;62526;50.948;6.590;2023-05-07T12:26:46;3.70;;;2.03;;
74170;SDS011;62526;50.948;6.590;2023-05-07T12:29:12;5.53;;;2.40;;
74170;SDS011;62526;50.948;6.590;2023-05-07T12:31:41;5.05;;;2.03;;
74170;SDS011;62526;50.948;6.590;2023-05-07T12:34:08;4.97;;;1.75;;
74170;SDS011;62526;50.948;6.590;2023-05-07T12:36:37;3.28;;;1.90;;
74170;SDS011;62526;50.948;6.590;2023-05-07T12:39:05;4.93;;;1.80;;
74170;SDS011;62526;50.948;6.590;2023-05-07T12:41:34;3.72;;;2.08;;
74170;SDS011;62526;50.948;6.590;2023-05-07T12:43:57;4.25;;;2.03;;
74170;SDS011;62526;50.948;6.590;2023-05-07T12:46:24;3.97;;;2.20;;
74170;SDS011;62526;50.948;6.590;2023-05-07T12:48:51;2.83;;;2.10;;
74170;SDS011;62526;50.948;6.590;2023-05-07T12:51:17;4.03;;;2.58;;
74170;SDS011;62526;50.948;6.590;2023-05-07T12:53:44;4.40;;;2.28;;
74170;SDS011;62526;50.948;6.590;2023-05-07T12:56:10;5.70;;;2.87;;
74170;SDS011;62526;50.948;6.590;2023-05-07T12:58:37;4.20;;;2.55;;
74170;SDS011;62526;50.948;6.590;2023-05-07T13:01:05;6.07;;;2.87;;
74170;SDS011;62526;50.948;6.590;2023-05-07T13:03:32;7.68;;;2.55;;
74170;SDS011;62526;50.948;6.590;2023-05-07T13:06:01;6.53;;;2.62;;
74170;SDS011;62526;50.948;6.590;2023-05-07T13:08:30;4.75;;;2.80;;
74170;SDS011;62526;50.948;6.590;2023-05-07T13:10:58;3.85;;;3.03;;
74170;SDS011;62526;50.948;6.590;2023-05-07T13:13:25;3.92;;;2.80;;
74170;SDS011;62526;50.948;6.590;2023-05-07T13:15:51;5.30;;;2.70;;
74170;SDS011;62526;50.948;6.590;2023-05-07T13:18:18;5.80;;;3.10;;
74170;SDS011;62526;50.948;6.590;2023-05-07T13:20:44;5.82;;;3.35;;
74170;SDS011;62526;50.948;6.590;2023-05-07T13:23:11;8.50;;;2.75;;
74170;SDS011;62526;50.948;6.590;2023-05-07T13:25:38;4.50;;;2.80;;
74170;SDS011;62526;50.948;6.590;2023-05-07T13:28:04;5.82;;;3.03;;
74170;SDS011;62526;50.948;6.590;2023-05-07T13:30:31;6.20;;;2.92;;
74170;SDS011;62526;50.948;6.590;2023-05-07T13:32:58;4.30;;;2.42;;
74170;SDS011;62526;50.948;6.590;2023-05-07T13:35:25;7.37;;;2.20;;
74170;SDS011;62526;50.948;6.590;2023-05-07T13:37:51;3.90;;;2.40;;
74170;SDS011;62526;50.948;6.590;2023-05-07T13:40:20;3.87;;;2.40;;
74170;SDS011;62526;50.948;6.590;2023-05-07T13:42:48;8.15;;;2.30;;
74170;SDS011;62526;50.948;6.590;2023-05-07T13:45:14;5.55;;;2.15;;
74170;SDS011;62526;50.948;6.590;2023-05-07T13:47:42;2.87;;;1.60;;
74170;SDS011;62526;50.948;6.590;2023-05-07T13:50:09;3.55;;;1.80;;
74170;SDS011;62526;50.948;6.590;2023-05-07T13:52:37;2.62;;;1.58;;
74170;SDS011;62526;50.948;6.590;2023-05-07T13:55:03;2.28;;;1.50;;
74170;SDS011;62526;50.948;6.590;2023-05-07T13:57:30;1.98;;;1.27;;
74170;SDS011;62526;50.948;6.590;2023-05-07T13:59:56;3.15;;;1.67;;
74170;SDS011;62526;50.948;6.590;2023-05-07T14:02:23;1.55;;;1.33;;
74170;SDS011;62526;50.948;6.590;2023-05-07T14:04:49;1.27;;;1.17;;
74170;SDS011;62526;50.948;6.590;2023-05-07T14:07:16;2.28;;;1.27;;
74170;SDS011;62526;50.948;6.590;2023-05-07T14:09:43;8.13;;;1.62;;
74170;SDS011;62526;50.948;6.590;2023-05-07T14:12:09;1.42;;;1.33;;
74170;SDS011;62526;50.948;6.590;2023-05-07T14:14:36;2.87;;;1.83;;
74170;SDS011;62526;50.948;6.590;2023-05-07T14:17:03;2.72;;;1.70;;
74170;SDS011;62526;50.948;6.590;2023-05-07T14:19:29;2.45;;;1.80;;
74170;SDS011;62526;50.948;6.590;2023-05-07T14:21:56;3.28;;;2.10;;
74170;SDS011;62526;50.948;6.590;2023-05-07T14:24:23;3.00;;;2.50;;
74170;SDS011;62526;50.948;6.590;2023-05-07T14:26:50;3.42;;;3.05;;
74170;SDS011;62526;50.948;6.590;2023-05-07T14:29:16;3.55;;;2.75;;
74170;SDS011;62526;50.948;6.590;2023-05-07T14:31:43;5.62;;;3.08;;
74170;SDS011;62526;50.948;6.590;2023-05-07T14:34:09;6.65;;;3.72;;
74170;SDS011;62526;50.948;6.590;2023-05-07T14:36:36;8.10;;;3.87;;
74170;SDS011;62526;50.948;6.590;2023-05-07T14:39:03;5.85;;;3.30;;
74170;SDS011;62526;50.948;6.590;2023-05-07T14:41:30;7.70;;;4.30;;
74170;SDS011;62526;50.948;6.590;2023-05-07T14:43:57;5.62;;;3.60;;
74170;SDS011;62526;50.948;6.590;2023-05-07T14:46:23;4.70;;;3.42;;
74170;SDS011;62526;50.948;6.590;2023-05-07T14:48:50;3.78;;;2.83;;
74170;SDS011;62526;50.948;6.590;2023-05-07T14:51:16;3.60;;;3.00;;
74170;SDS011;62526;50.948;6.590;2023-05-07T14:53:43;7.82;;;3.22;;
74170;SDS011;62526;50.948;6.590;2023-05-07T14:56:10;3.90;;;2.90;;
74170;SDS011;62526;50.948;6.590;2023-05-07T14:58:37;5.30;;;2.83;;
74170;SDS011;62526;50.948;6.590;2023-05-07T15:01:04;4.07;;;2.58;;
74170;SDS011;62526;50.948;6.590;2023-05-07T15:03:30;4.50;;;2.42;;
74170;SDS011;62526;50.948;6.590;2023-05-07T15:05:59;5.60;;;2.65;;